Time;durP1;ratioP1;P1;durP2;ratioP2;P2;SDS_P1;SDS_P2;PMS_P1;PMS_P2;Temp;Humidity;BMP_temperature;BMP_pressure;BME280_temperature;BME280_humidity;BME280_pressure;Samples;Min_cycle;Max_cycle;Signal;HPM_P1;HPM_P2
2022/02/21 00:02:21;;;;;;;63.85;35.03;;;154.00;2252.80;;;;;;5043449;28;19931;-82
2022/02/21 00:04:46;;;;;;;83.88;43.08;;;153.60;2252.80;;;;;;5043274;28;20115;-80
2022/02/21 00:07:12;;;;;;;;;;;153.70;2252.80;;;;;;5043731;28;20025;-82
2022/02/21 00:09:38;;;;;;;72.82;39.78;;;153.90;2252.80;;;;;;5039400;28;19905;-82
2022/02/21 00:12:04;;;;;;;;;;;153.80;2252.80;;;;;;5043816;28;20534;-79
2022/02/21 00:14:29;;;;;;;70.93;38.95;;;153.60;2252.80;;;;;;5042938;28;19905;-81
2022/02/21 00:16:55;;;;;;;;;;;128.90;2252.80;;;;;;5043683;28;20067;-81
2022/02/21 00:19:21;;;;;;;62.75;33.92;;;128.80;2252.80;;;;;;5044797;28;19968;-79
2022/02/21 00:21:46;;;;;;;;;;;128.70;2252.80;;;;;;5044563;28;20373;-79
2022/02/21 00:24:12;;;;;;;71.90;41.22;;;128.70;2252.80;;;;;;5040710;28;19905;-81
2022/02/21 00:26:38;;;;;;;;;;;128.60;2252.80;;;;;;5042168;28;20026;-83
2022/02/21 00:29:03;;;;;;;65.05;35.03;;;128.50;2252.80;;;;;;5042817;28;19911;-80
2022/02/21 00:31:29;;;;;;;;;;;128.40;2252.80;;;;;;5045146;28;20025;-80
2022/02/21 00:33:55;;;;;;;75.90;39.10;;;128.30;2252.80;;;;;;5042545;28;19917;-81
2022/02/21 00:36:20;;;;;;;;;;;128.40;2252.80;;;;;;5043751;28;20032;-80
2022/02/21 00:38:46;;;;;;;82.93;42.15;;;128.60;2252.80;;;;;;5042204;28;20320;-83
2022/02/21 00:41:12;;;;;;;;;;;128.40;2252.80;;;;;;5041819;28;20026;-79
2022/02/21 00:43:37;;;;;;;73.05;37.78;;;128.40;2252.80;;;;;;5041187;28;19955;-83
2022/02/21 00:46:03;;;;;;;;;;;128.20;2252.80;;;;;;5043952;28;20496;-79
2022/02/21 00:48:29;;;;;;;71.78;38.38;;;103.20;2227.20;;;;;;5042223;28;19905;-83
2022/02/21 00:50:54;;;;;;;;;;;103.20;2227.20;;;;;;5041937;28;20028;-80
2022/02/21 00:53:20;;;;;;;77.70;41.83;;;102.90;2227.20;;;;;;5037563;28;19909;-82
2022/02/21 00:55:46;;;;;;;;;;;103.10;2227.20;;;;;;5042579;28;20117;-80
2022/02/21 00:58:12;;;;;;;100.47;47.25;;;103.30;2227.20;;;;;;5039435;28;19905;-88
2022/02/21 01:00:37;;;;;;;;;;;103.30;2227.20;;;;;;5043804;28;20406;-79
2022/02/21 01:03:03;;;;;;;92.82;46.28;;;103.30;2227.20;;;;;;5041816;28;19974;-83
2022/02/21 01:05:29;;;;;;;;;;;103.30;2227.20;;;;;;5043568;28;20068;-79
2022/02/21 01:07:56;;;;;;;91.35;46.42;;;103.30;2227.20;;;;;;5044392;28;19905;-89
2022/02/21 01:10:22;;;;;;;97.07;47.80;;;103.30;2227.20;;;;;;5039156;28;20048;-84
2022/02/21 01:12:48;;;;;;;;;;;103.20;2227.20;;;;;;5043051;28;20483;-87
2022/02/21 01:15:14;;;;;;;87.30;45.67;;;103.20;2227.20;;;;;;5037900;28;19912;-88
2022/02/21 01:17:42;;;;;;;88.18;45.03;;;103.00;2227.20;;;;;;5038070;28;20536;-88
2022/02/21 01:20:09;;;;;;;85.55;45.50;;;103.00;2227.20;;;;;;5041809;28;20029;-88
2022/02/21 01:22:35;;;;;;;86.78;48.58;;;103.00;2227.20;;;;;;5041790;28;20015;-89
2022/02/21 01:25:02;;;;;;;105.47;54.42;;;103.00;2227.20;;;;;;5043366;28;20033;-79
2022/02/21 01:27:28;;;;;;;101.63;50.10;;;103.10;2227.20;;;;;;5043680;28;20024;-78
2022/02/21 01:29:53;;;;;;;;;;;103.30;2227.20;;;;;;5043035;28;20442;-79
2022/02/21 01:32:19;;;;;;;97.88;51.35;;;128.00;2252.80;;;;;;5043550;28;20289;-87
2022/02/21 01:34:45;;;;;;;;;;;128.10;2252.80;;;;;;5041429;28;20045;-87
2022/02/21 01:37:11;;;;;;;96.00;49.67;;;128.20;2252.80;;;;;;5042144;28;20271;-87
2022/02/21 01:39:36;;;;;;;;;;;128.20;2252.80;;;;;;5044955;28;20033;-79
2022/02/21 01:42:06;;;;;;;96.72;47.58;;;128.20;2252.80;;;;;;5043136;28;19905;-79
2022/02/21 01:44:40;;;;;;;95.78;49.20;;;128.20;2252.80;;;;;;5043896;28;20025;-78
2022/02/21 01:47:08;;;;;;;85.63;47.08;;;128.40;2252.80;;;;;;5038345;28;20033;-79
2022/02/21 01:49:34;;;;;;;84.68;44.42;;;128.30;2252.80;;;;;;5041465;28;20028;-79
2022/02/21 01:52:00;;;;;;;;;;;128.40;2252.80;;;;;;5043429;28;20021;-85
2022/02/21 01:54:25;;;;;;;82.97;42.05;;;128.30;2252.80;;;;;;5041125;28;19983;-80
2022/02/21 01:56:53;;;;;;;;;;;128.20;2252.80;;;;;;5042155;28;20483;-83
2022/02/21 01:59:19;;;;;;;55.22;30.38;;;128.10;2252.80;;;;;;5039822;28;19979;-83
2022/02/21 02:01:45;;;;;;;74.57;39.60;;;128.00;2252.80;;;;;;5036910;28;20041;-80
2022/02/21 02:04:11;;;;;;;;;;;128.10;2252.80;;;;;;5040162;28;20490;-79
2022/02/21 02:06:37;;;;;;;75.07;40.67;;;128.00;2252.80;;;;;;5043823;28;19905;-82
2022/02/21 02:09:03;;;;;;;;;;;103.30;2227.20;;;;;;5044819;28;20021;-79
2022/02/21 02:11:29;;;;;;;72.40;39.33;;;103.30;2227.20;;;;;;5043409;28;20382;-83
2022/02/21 02:13:55;;;;;;;79.65;41.80;;;103.20;2227.20;;;;;;5041231;28;20028;-79
2022/02/21 02:16:21;;;;;;;;;;;103.20;2227.20;;;;;;5040110;28;20391;-79
2022/02/21 02:18:47;;;;;;;71.20;36.15;;;103.10;2227.20;;;;;;5043645;28;20393;-80
2022/02/21 02:21:18;;;;;;;;;;;103.20;2227.20;;;;;;5047018;28;20029;-78
2022/02/21 02:23:44;;;;;;;74.60;37.33;;;103.20;2227.20;;;;;;5044121;28;20371;-81
2022/02/21 02:26:09;;;;;;;;;;;103.10;2227.20;;;;;;5046255;28;20025;-79
2022/02/21 02:28:35;;;;;;;72.18;39.35;;;103.20;2227.20;;;;;;5040553;28;20367;-79
2022/02/21 02:31:01;;;;;;;74.47;36.90;;;103.20;2227.20;;;;;;5045340;28;20139;-83
2022/02/21 02:33:27;;;;;;;;;;;103.20;2227.20;;;;;;5045707;28;20555;-79
2022/02/21 02:35:54;;;;;;;64.53;34.40;;;103.20;2227.20;;;;;;5043660;28;19921;-79
2022/02/21 02:38:19;;;;;;;71.25;36.17;;;103.20;2227.20;;;;;;5043865;28;20053;-89
2022/02/21 02:40:45;;;;;;;;;;;103.20;2227.20;;;;;;5047394;28;20064;-87
2022/02/21 02:43:12;;;;;;;59.25;32.38;;;103.20;2227.20;;;;;;5044679;28;20362;-77
2022/02/21 02:45:43;;;;;;;69.78;35.55;;;103.20;2227.20;;;;;;5043849;28;20417;-79
2022/02/21 02:48:09;;;;;;;70.97;35.88;;;103.10;2227.20;;;;;;5044221;28;20025;-89
2022/02/21 02:50:35;;;;;;;;;;;103.30;2227.20;;;;;;5042429;28;20029;-80
2022/02/21 02:53:00;;;;;;;64.63;33.38;;;103.30;2227.20;;;;;;5040313;28;19916;-78
2022/02/21 02:55:26;;;;;;;;;;;103.30;2227.20;;;;;;5038548;28;20491;-79
2022/02/21 02:57:51;;;;;;;65.43;33.00;;;103.30;2227.20;;;;;;5043542;28;19905;-80
2022/02/21 03:00:17;;;;;;;;;;;103.30;2227.20;;;;;;5044429;28;20093;-81
2022/02/21 03:02:43;;;;;;;68.55;33.72;;;103.30;2227.20;;;;;;5045582;28;19921;-80
2022/02/21 03:05:09;;;;;;;;;;;103.30;2227.20;;;;;;5045663;28;20013;-84
2022/02/21 03:07:34;;;;;;;62.97;32.97;;;103.30;2227.20;;;;;;5043012;28;19951;-80
2022/02/21 03:10:00;;;;;;;;;;;103.30;2227.20;;;;;;5043074;28;20029;-80
2022/02/21 03:12:26;;;;;;;68.53;32.15;;;128.00;2252.80;;;;;;5042778;28;19988;-80
2022/02/21 03:14:51;;;;;;;;;;;128.00;2252.80;;;;;;5041898;28;20032;-83
2022/02/21 03:17:17;;;;;;;69.07;31.15;;;128.00;2252.80;;;;;;5046589;28;19905;-84
2022/02/21 03:19:43;;;;;;;;;;;128.00;2252.80;;;;;;5046015;28;20124;-81
2022/02/21 03:22:08;;;;;;;61.25;31.55;;;128.00;2252.80;;;;;;5046133;28;20362;-80
2022/02/21 03:24:34;;;;;;;;;;;128.00;2252.80;;;;;;5042419;28;20021;-86
2022/02/21 03:27:00;;;;;;;60.58;30.83;;;128.00;2252.80;;;;;;5045262;28;20329;-80
2022/02/21 03:29:25;;;;;;;;;;;128.00;2252.80;;;;;;5042384;28;20045;-84
2022/02/21 03:31:51;;;;;;;62.10;31.17;;;128.00;2252.80;;;;;;5045713;28;20011;-83
2022/02/21 03:34:17;;;;;;;;;;;103.30;2227.20;;;;;;5044408;28;20056;-85
2022/02/21 03:36:42;;;;;;;60.03;30.45;;;128.00;2252.80;;;;;;5042384;28;20418;-85
2022/02/21 03:39:08;;;;;;;;;;;103.20;2227.20;;;;;;5038024;28;20034;-80
2022/02/21 03:41:36;;;;;;;61.20;30.48;;;103.20;2227.20;;;;;;5043925;28;19904;-85
2022/02/21 03:44:03;;;;;;;62.55;32.22;;;103.30;2227.20;;;;;;5044850;28;20479;-80
2022/02/21 03:46:29;;;;;;;58.70;31.25;;;103.10;2227.20;;;;;;5034615;28;20026;-81
2022/02/21 03:48:55;;;;;;;;;;;103.20;2227.20;;;;;;5044615;28;20025;-86
2022/02/21 03:51:21;;;;;;;55.70;29.55;;;103.10;2227.20;;;;;;5043370;28;19905;-80
2022/02/21 03:53:46;;;;;;;;;;;103.00;2227.20;;;;;;5045173;28;20052;-86
2022/02/21 03:56:12;;;;;;;58.97;29.23;;;103.00;2227.20;;;;;;5043385;28;20019;-80
2022/02/21 03:58:38;;;;;;;61.45;30.27;;;102.90;2227.20;;;;;;5042396;28;20383;-87
2022/02/21 04:01:03;;;;;;;;;;;102.90;2227.20;;;;;;5045273;28;20036;-83
2022/02/21 04:03:29;;;;;;;56.28;28.50;;;102.90;2227.20;;;;;;5039379;28;19928;-90
2022/02/21 04:05:54;;;;;;;;;;;102.80;2227.20;;;;;;5044040;28;20048;-88
2022/02/21 04:08:20;;;;;;;58.50;30.13;;;102.80;2227.20;;;;;;5044572;28;20394;-81
2022/02/21 04:10:46;;;;;;;;;;;102.90;2227.20;;;;;;5045002;28;20024;-89
2022/02/21 04:13:11;;;;;;;54.60;28.98;;;102.80;2227.20;;;;;;5045536;28;19908;-85
2022/02/21 04:15:37;;;;;;;;;;;102.70;2227.20;;;;;;5042798;28;20403;-80
2022/02/21 04:18:03;;;;;;;52.17;27.55;;;102.70;2227.20;;;;;;5042012;28;19905;-80
2022/02/21 04:20:30;;;;;;;;;;;102.80;2227.20;;;;;;5042338;28;20095;-91
2022/02/21 04:22:56;;;;;;;39.10;20.67;;;102.80;2227.20;;;;;;5046517;28;19904;-80
2022/02/21 04:25:21;;;;;;;;;;;102.70;2227.20;;;;;;5044213;28;20383;-80
2022/02/21 04:27:49;;;;;;;52.05;29.15;;;102.80;2227.20;;;;;;5041686;28;19977;-79
2022/02/21 04:30:21;;;;;;;61.72;30.02;;;102.70;2227.20;;;;;;5043015;28;20021;-78
2022/02/21 04:32:47;;;;;;;53.88;29.40;;;102.80;2227.20;;;;;;5042845;28;20406;-86
2022/02/21 04:35:15;;;;;;;63.42;31.08;;;103.20;2227.20;;;;;;5044802;28;20031;-79
2022/02/21 04:37:41;;;;;;;65.28;33.45;;;102.80;2227.20;;;;;;5041738;28;20021;-79
2022/02/21 04:40:08;;;;;;;;;;;102.80;2227.20;;;;;;5041447;28;20039;-87
2022/02/21 04:42:34;;;;;;;49.97;25.67;;;102.90;2227.20;;;;;;5041258;28;19908;-79
2022/02/21 04:45:00;;;;;;;58.78;30.38;;;102.90;2227.20;;;;;;5042970;28;20033;-88
2022/02/21 04:47:26;;;;;;;;;;;102.90;2227.20;;;;;;5041823;28;20075;-79
2022/02/21 04:49:52;;;;;;;59.90;30.13;;;102.80;2227.20;;;;;;5044384;28;19905;-80
2022/02/21 04:52:17;;;;;;;;;;;102.90;2227.20;;;;;;5045942;28;20019;-88
2022/02/21 04:54:43;;;;;;;53.25;30.40;;;102.90;2227.20;;;;;;5044406;28;19958;-82
2022/02/21 04:57:09;;;;;;;;;;;102.80;2227.20;;;;;;5044793;28;20048;-85
2022/02/21 04:59:35;;;;;;;56.13;29.98;;;102.80;2227.20;;;;;;5041449;28;19913;-86
2022/02/21 05:02:01;;;;;;;;;;;102.80;2227.20;;;;;;5042618;28;20073;-79
2022/02/21 05:04:27;;;;;;;47.30;23.40;;;102.90;2227.20;;;;;;5040659;28;19913;-83
2022/02/21 05:06:53;;;;;;;68.20;33.25;;;102.80;2227.20;;;;;;5040422;28;20782;-79
2022/02/21 05:09:19;;;;;;;;;;;102.70;2227.20;;;;;;5045636;28;20021;-86
2022/02/21 05:11:45;;;;;;;54.33;29.15;;;102.80;2227.20;;;;;;5045860;28;20308;-86
2022/02/21 05:14:10;;;;;;;;;;;103.00;2227.20;;;;;;5044426;28;20017;-85
2022/02/21 05:16:36;;;;;;;51.35;27.25;;;103.10;2227.20;;;;;;5039333;28;19905;-84
2022/02/21 05:19:02;;;;;;;;;;;103.00;2227.20;;;;;;5042211;28;20399;-81
2022/02/21 05:21:31;;;;;;;61.67;30.15;;;102.90;2227.20;;;;;;5040551;28;19967;-82
2022/02/21 05:23:58;;;;;;;59.17;28.92;;;102.80;2227.20;;;;;;5042654;28;20021;-85
2022/02/21 05:26:24;;;;;;;55.65;30.10;;;102.70;2227.20;;;;;;5042316;28;20403;-79
2022/02/21 05:28:52;;;;;;;53.92;27.90;;;102.60;2227.20;;;;;;5041418;28;20014;-87
2022/02/21 05:31:18;;;;;;;52.33;31.33;;;102.50;2227.20;;;;;;5039941;28;20396;-80
2022/02/21 05:33:44;;;;;;;51.67;28.08;;;102.50;2227.20;;;;;;5043219;28;20025;-79
2022/02/21 05:36:10;;;;;;;;;;;102.40;2227.20;;;;;;5041057;28;20022;-88
2022/02/21 05:38:36;;;;;;;62.00;28.58;;;102.40;2227.20;;;;;;5037695;28;19962;-88
2022/02/21 05:41:01;;;;;;;;;;;102.50;2227.20;;;;;;5044160;28;20057;-84
2022/02/21 05:43:27;;;;;;;55.60;27.23;;;102.50;2227.20;;;;;;5041366;28;19927;-80
2022/02/21 05:45:53;;;;;;;;;;;102.40;2227.20;;;;;;5046154;28;20021;-86
2022/02/21 05:48:19;;;;;;;60.83;29.13;;;103.00;2227.20;;;;;;5042940;28;19905;-82
2022/02/21 05:50:44;;;;;;;;;;;102.60;2227.20;;;;;;5040729;28;20098;-80
2022/02/21 05:53:11;;;;;;;61.63;29.85;;;102.60;2227.20;;;;;;5042792;28;19956;-83
2022/02/21 05:55:37;;;;;;;60.67;30.67;;;102.60;2227.20;;;;;;5044608;28;20594;-80
2022/02/21 05:58:02;;;;;;;;;;;102.60;2227.20;;;;;;5048901;28;20091;-80
2022/02/21 06:00:28;;;;;;;56.22;27.00;;;102.60;2227.20;;;;;;5045579;28;19916;-82
2022/02/21 06:02:54;;;;;;;;;;;102.60;2227.20;;;;;;5046776;28;20041;-85
2022/02/21 06:05:20;;;;;;;56.15;26.88;;;102.60;2227.20;;;;;;5043918;28;19905;-79
2022/02/21 06:07:45;;;;;;;;;;;102.50;2227.20;;;;;;5046379;28;20021;-87
2022/02/21 06:10:11;;;;;;;50.38;29.48;;;102.60;2227.20;;;;;;5044276;28;19908;-82
2022/02/21 06:12:36;;;;;;;;;;;102.60;2227.20;;;;;;5046418;28;20498;-79
2022/02/21 06:15:02;;;;;;;75.00;41.55;;;102.60;2227.20;;;;;;5046427;28;19905;-80
2022/02/21 06:17:29;;;;;;;;;;;102.60;2227.20;;;;;;5044454;28;20036;-84
2022/02/21 06:19:54;;;;;;;61.93;34.20;;;102.60;2227.20;;;;;;5044160;28;20374;-81
2022/02/21 06:22:21;;;;;;;62.53;31.35;;;102.50;2227.20;;;;;;5044639;28;20258;-85
2022/02/21 06:24:47;;;;;;;71.47;34.78;;;102.50;2227.20;;;;;;5044303;28;20032;-89
2022/02/21 06:27:13;;;;;;;87.60;41.25;;;102.70;2227.20;;;;;;5044380;28;20021;-81
2022/02/21 06:29:39;;;;;;;85.75;39.45;;;102.70;2227.20;;;;;;5045820;28;20028;-90
2022/02/21 06:32:05;;;;;;;;;;;102.80;2227.20;;;;;;5041073;28;20046;-91
2022/02/21 06:34:31;;;;;;;98.25;40.85;;;102.80;2227.20;;;;;;5043742;28;20420;-88
2022/02/21 06:36:57;;;;;;;;;;;102.90;2227.20;;;;;;5042654;28;20067;-82
2022/02/21 06:39:22;;;;;;;87.75;42.25;;;103.00;2227.20;;;;;;5046998;28;19908;-82
2022/02/21 06:41:49;;;;;;;;;;;103.00;2227.20;;;;;;5048104;28;20055;-79
2022/02/21 06:44:14;;;;;;;58.05;27.05;;;103.10;2227.20;;;;;;5044293;28;20447;-93
2022/02/21 06:46:40;;;;;;;;;;;103.20;2227.20;;;;;;5044581;28;20101;-83
2022/02/21 06:49:06;;;;;;;56.65;29.10;;;103.30;2227.20;;;;;;5043858;28;19968;-81
2022/02/21 06:51:35;;;;;;;;;;;103.30;2227.20;;;;;;5044482;28;20479;-81
2022/02/21 06:54:02;;;;;;;49.08;25.77;;;103.30;2227.20;;;;;;5044079;28;19905;-83
2022/02/21 06:56:28;;;;;;;44.65;25.00;;;128.00;2252.80;;;;;;5049621;28;20032;-81
2022/02/21 06:58:53;;;;;;;;;;;128.10;2252.80;;;;;;5055173;28;20502;-81
2022/02/21 07:01:19;;;;;;;50.08;24.13;;;128.20;2252.80;;;;;;5042916;28;19948;-82
2022/02/21 07:03:45;;;;;;;;;;;128.20;2252.80;;;;;;5034334;28;20038;-79
2022/02/21 07:06:10;;;;;;;49.08;25.65;;;128.30;2252.80;;;;;;5036006;28;19905;-80
2022/02/21 07:08:36;;;;;;;;;;;128.40;2252.80;;;;;;5035120;28;20120;-81
2022/02/21 07:11:02;;;;;;;51.67;25.40;;;128.50;2252.80;;;;;;5033440;28;19919;-81
2022/02/21 07:13:29;;;;;;;;;;;128.50;2252.80;;;;;;5035327;28;20041;-80
2022/02/21 07:15:55;;;;;;;56.92;27.65;;;128.60;2252.80;;;;;;5034975;28;20028;-84
2022/02/21 07:18:21;;;;;;;50.38;25.90;;;128.80;2252.80;;;;;;5034663;28;20061;-85
2022/02/21 07:20:46;;;;;;;;;;;128.90;2252.80;;;;;;5029256;28;20073;-80
2022/02/21 07:23:12;;;;;;;47.53;23.27;;;153.60;2252.80;;;;;;5018362;28;20000;-80
2022/02/21 07:25:38;;;;;;;47.83;26.23;;;128.90;2252.80;;;;;;5034176;28;20026;-81
2022/02/21 07:28:04;;;;;;;;;;;154.00;2252.80;;;;;;5034867;28;20040;-81
2022/02/21 07:30:30;;;;;;;45.65;23.67;;;154.20;2252.80;;;;;;5039671;28;19954;-80
2022/02/21 07:32:56;;;;;;;;;;;154.00;2252.80;;;;;;5043552;28;20093;-80
2022/02/21 07:35:22;;;;;;;38.53;21.38;;;154.30;2252.80;;;;;;5043961;28;19904;-80
2022/02/21 07:37:48;;;;;;;;;;;154.50;2252.80;;;;;;5044895;28;20091;-84
2022/02/21 07:40:15;;;;;;;36.20;20.67;;;154.50;2252.80;;;;;;5042972;28;20359;-80
2022/02/21 07:42:49;;;;;;;38.42;22.17;;;154.50;2252.80;;;;;;5044009;28;20151;-83
2022/02/21 07:45:19;;;;;;;38.75;21.45;;;179.30;2252.80;;;;;;5045034;28;20051;-84
2022/02/21 07:47:50;;;;;;;42.55;22.05;;;179.40;2252.80;;;;;;5048333;28;20024;-82
2022/02/21 07:50:17;;;;;;;33.60;20.13;;;179.50;2252.80;;;;;;5052106;28;20064;-81
2022/02/21 07:52:43;;;;;;;36.55;21.38;;;179.70;2252.80;;;;;;5026282;28;20022;-81
2022/02/21 07:55:10;;;;;;;38.05;20.08;;;179.80;2252.80;;;;;;5014434;28;20105;-82
2022/02/21 07:57:42;;;;;;;34.60;18.85;;;180.00;2252.80;;;;;;5014488;28;20407;-80
2022/02/21 08:00:10;;;;;;;34.75;19.75;;;180.10;2252.80;;;;;;5013824;28;20058;-82
2022/02/21 08:02:36;;;;;;;34.13;19.63;;;204.90;2252.80;;;;;;5033334;28;20068;-87
2022/02/21 08:05:02;;;;;;;32.08;17.80;;;205.00;2252.80;;;;;;5033954;28;20041;-86
2022/02/21 08:07:28;;;;;;;32.15;17.98;;;205.10;2252.80;;;;;;5033174;28;20041;-94
2022/02/21 08:09:54;;;;;;;;;;;205.10;2252.80;;;;;;5048977;28;20029;-83
2022/02/21 08:12:19;;;;;;;32.88;17.65;;;205.20;2252.80;;;;;;5037437;28;19916;-85
2022/02/21 08:14:45;;;;;;;;;;;205.20;2252.80;;;;;;5033634;28;20052;-79
2022/02/21 08:17:11;;;;;;;29.25;16.08;;;205.20;2252.80;;;;;;5033056;28;20024;-83
2022/02/21 08:19:36;;;;;;;;;;;205.30;2252.80;;;;;;5034027;28;20120;-79
2022/02/21 08:22:03;;;;;;;36.65;17.80;;;205.40;2252.80;;;;;;5033313;28;19909;-78
2022/02/21 08:24:28;;;;;;;35.20;18.58;;;205.50;2252.80;;;;;;5033044;28;20021;-79
2022/02/21 08:26:54;;;;;;;;;;;205.70;2252.80;;;;;;5033344;28;20116;-80
2022/02/21 08:29:20;;;;;;;39.58;23.25;;;230.40;2252.80;;;;;;5027524;28;19909;-79
2022/02/21 08:31:47;;;;;;;;;;;230.50;2252.80;;;;;;5034347;28;20390;-85
2022/02/21 08:34:14;;;;;;;29.73;16.50;;;230.60;2252.80;;;;;;5034422;28;19909;-79
2022/02/21 08:36:40;;;;;;;29.92;18.25;;;230.60;2252.80;;;;;;5034332;28;20033;-79
2022/02/21 08:39:06;;;;;;;;;;;230.80;2252.80;;;;;;5034326;28;20080;-85
2022/02/21 08:41:32;;;;;;;25.73;14.02;;;230.90;2252.80;;;;;;5032736;28;19996;-80
2022/02/21 08:43:57;;;;;;;;;;;230.90;2252.80;;;;;;5017146;28;20040;-86
2022/02/21 08:46:23;;;;;;;28.45;15.40;;;231.00;2252.80;;;;;;5013036;28;19909;-82
2022/02/21 08:48:49;;;;;;;27.48;16.80;;;231.10;2252.80;;;;;;5013079;28;20120;-89
2022/02/21 08:51:15;;;;;;;;;;;231.20;2252.80;;;;;;5013587;28;20068;-79
2022/02/21 08:53:41;;;;;;;23.13;13.45;;;231.30;2252.80;;;;;;5028792;28;19905;-79
2022/02/21 08:56:07;;;;;;;;;;;256.00;2252.80;;;;;;5043211;28;20056;-86
2022/02/21 08:58:34;;;;;;;32.47;16.92;;;256.20;2252.80;;;;;;5040068;28;19948;-80
2022/02/21 09:01:00;;;;;;;26.80;16.67;;;256.30;2252.80;;;;;;5031487;28;20515;-88
2022/02/21 09:03:26;;;;;;;27.80;15.95;;;256.40;2252.80;;;;;;5029046;28;20050;-79
2022/02/21 09:05:52;;;;;;;;;;;256.50;2252.80;;;;;;5014111;28;20183;-80
2022/02/21 09:08:18;;;;;;;25.92;17.05;;;256.50;2252.80;;;;;;5027447;28;19916;-79
2022/02/21 09:10:45;;;;;;;25.08;15.50;;;256.50;2252.80;;;;;;5031123;28;20021;-80
2022/02/21 09:13:10;;;;;;;29.02;17.17;;;256.70;2252.80;;;;;;5019762;28;20038;-91
2022/02/21 09:15:37;;;;;;;32.63;17.77;;;256.80;2252.80;;;;;;5029840;28;20120;-81
2022/02/21 09:18:05;;;;;;;26.33;15.07;;;256.70;2252.80;;;;;;5034806;28;20064;-84
2022/02/21 09:20:31;;;;;;;31.73;17.58;;;281.70;2278.40;;;;;;5038167;28;20047;-82
2022/02/21 09:22:57;;;;;;;32.65;18.33;;;282.20;2278.40;;;;;;5044024;28;20033;-90
2022/02/21 09:25:23;;;;;;;28.23;15.80;;;282.00;2278.40;;;;;;5035939;28;20395;-79
2022/02/21 09:27:51;;;;;;;29.08;17.27;;;282.00;2278.40;;;;;;5024929;28;20116;-79
2022/02/21 09:30:18;;;;;;;29.88;17.10;;;282.20;2278.40;;;;;;5034487;28;20029;-79
2022/02/21 09:32:44;;;;;;;27.75;15.95;;;282.30;2278.40;;;;;;5045327;28;20067;-84
2022/02/21 09:35:10;;;;;;;25.77;15.73;;;282.40;2278.40;;;;;;5041266;28;20021;-82
2022/02/21 09:37:36;;;;;;;25.75;15.25;;;282.50;2278.40;;;;;;5035219;28;20035;-91
2022/02/21 09:40:08;;;;;;;25.85;14.98;;;307.30;2304.00;;;;;;5034837;28;20052;-79
2022/02/21 09:42:34;;;;;;;27.25;16.10;;;307.40;2304.00;;;;;;5036018;28;20014;-80
2022/02/21 09:45:00;;;;;;;31.58;16.13;;;307.60;2304.00;;;;;;5031338;28;20026;-89
2022/02/21 09:47:28;;;;;;;23.85;15.00;;;307.60;2304.00;;;;;;5034749;28;20022;-79
2022/02/21 09:49:55;;;;;;;26.45;15.50;;;307.70;2304.00;;;;;;5020306;28;20060;-88
2022/02/21 09:52:21;;;;;;;39.45;19.25;;;307.80;2304.00;;;;;;5035112;28;20017;-81
2022/02/21 09:54:47;;;;;;;21.77;13.07;;;307.80;2304.00;;;;;;5031860;28;20036;-83
2022/02/21 09:57:16;;;;;;;27.85;13.73;;;307.80;2304.00;;;;;;5041350;28;20021;-80
2022/02/21 09:59:42;;;;;;;25.42;11.13;;;308.00;2304.00;;;;;;5033842;28;20132;-81
2022/02/21 10:02:17;;;;;;;18.20;10.25;;;308.10;2304.00;;;;;;5030211;28;20091;-82
2022/02/21 10:04:43;;;;;;;15.47;9.90;;;332.80;2329.60;;;;;;5043152;28;20032;-78
2022/02/21 10:07:09;;;;;;;17.10;8.73;;;332.90;2329.60;;;;;;5034617;28;20017;-79
2022/02/21 10:09:42;;;;;;;16.95;9.45;;;333.10;2329.60;;;;;;5033276;28;20101;-80
2022/02/21 10:12:20;;;;;;;15.07;9.02;;;333.30;2329.60;;;;;;5032454;28;20017;-80
2022/02/21 10:14:46;;;;;;;13.02;6.95;;;333.40;2329.60;;;;;;5034225;28;20034;-80
2022/02/21 10:17:12;;;;;;;13.30;6.70;;;333.70;2329.60;;;;;;5034548;28;20024;-80
2022/02/21 10:19:39;;;;;;;12.48;6.78;;;333.70;2329.60;;;;;;5034742;28;20087;-86
2022/02/21 10:22:07;;;;;;;10.93;6.55;;;333.70;2329.60;;;;;;5034107;28;20048;-88
2022/02/21 10:24:41;;;;;;;13.05;7.88;;;333.70;2329.60;;;;;;5034562;28;20028;-89
2022/02/21 10:27:17;;;;;;;16.80;9.55;;;358.50;2329.60;;;;;;5040240;28;20174;-90
2022/02/21 10:29:55;;;;;;;16.10;8.20;;;358.90;2329.60;;;;;;5045357;28;20060;-88
2022/02/21 10:32:28;;;;;;;12.63;8.10;;;359.20;2278.40;;;;;;5044683;28;20059;-90
2022/02/21 10:34:56;;;;;;;11.68;6.47;;;359.30;2304.00;;;;;;5040105;28;20387;-80
2022/02/21 10:37:24;;;;;;;10.38;5.95;;;384.30;2150.40;;;;;;5044014;28;20025;-86
2022/02/21 10:40:13;;;;;;;24.48;8.20;;;384.40;2124.80;;;;;;5043571;28;20498;-81
2022/02/21 10:42:39;;;;;;;12.30;7.43;;;384.70;2124.80;;;;;;5043306;28;20045;-90
2022/02/21 10:45:14;;;;;;;11.63;6.13;;;409.60;2099.20;;;;;;5039980;28;20026;-79
2022/02/21 10:48:04;;;;;;;10.27;6.30;;;409.70;2022.40;;;;;;5035015;28;20031;-80
2022/02/21 10:50:33;;;;;;;18.05;7.07;;;384.90;2022.40;;;;;;5016661;28;20133;-90
2022/02/21 10:52:58;;;;;;;8.57;5.25;;;384.70;2048.00;;;;;;5015322;28;20535;-80
2022/02/21 10:55:35;;;;;;;10.75;6.38;;;384.70;1996.80;;;;;;5016232;28;20034;-80
2022/02/21 10:58:26;;;;;;;13.18;6.45;;;384.90;1971.20;;;;;;5015049;28;20423;-79
2022/02/21 11:00:56;;;;;;;11.10;5.68;;;384.90;1971.20;;;;;;5021708;28;20047;-81
2022/02/21 11:03:24;;;;;;;10.52;6.53;;;384.90;2022.40;;;;;;5032234;28;20049;-82
2022/02/21 11:05:51;;;;;;;10.55;6.35;;;384.90;1920.00;;;;;;5030662;28;20029;-81
2022/02/21 11:08:19;;;;;;;11.18;7.03;;;410.00;1920.00;;;;;;5035633;28;20022;-87
2022/02/21 11:10:48;;;;;;;13.57;7.25;;;410.30;1868.80;;;;;;5021483;28;20030;-81
2022/02/21 11:13:16;;;;;;;18.80;7.13;;;410.50;1843.20;;;;;;5015093;28;20391;-80
2022/02/21 11:15:42;;;;;;;13.35;6.93;;;410.30;1843.20;;;;;;5015784;28;20061;-81
2022/02/21 11:18:17;;;;;;;13.95;8.25;;;410.30;1894.40;;;;;;5020226;28;20096;-80
2022/02/21 11:20:44;;;;;;;14.38;6.57;;;435.30;1868.80;;;;;;5014752;28;20033;-81
2022/02/21 11:23:10;;;;;;;14.35;6.15;;;435.80;1792.00;;;;;;5023135;28;20029;-80
2022/02/21 11:25:50;;;;;;;13.57;6.93;;;435.90;1792.00;;;;;;5028022;28;20029;-79
2022/02/21 11:28:30;;;;;;;9.10;6.43;;;436.00;1740.80;;;;;;5032002;28;20488;-86
2022/02/21 11:31:03;;;;;;;10.32;5.05;;;460.80;1740.80;;;;;;5034253;28;20032;-84
2022/02/21 11:33:28;;;;;;;15.10;5.78;;;460.80;1715.20;;;;;;5035220;28;20064;-85
2022/02/21 11:36:06;;;;;;;7.38;4.35;;;461.10;1664.00;;;;;;5034691;28;20033;-83
2022/02/21 11:38:33;;;;;;;11.38;6.32;;;461.50;1587.20;;;;;;5035846;28;20505;-82
2022/02/21 11:41:08;;;;;;;12.88;6.40;;;461.60;1612.80;;;;;;5034284;28;20405;-82
2022/02/21 11:43:38;;;;;;;9.68;5.10;;;486.70;1561.60;;;;;;5033219;28;20057;-84
2022/02/21 11:46:19;;;;;;;8.93;6.07;;;486.70;1510.40;;;;;;5034113;28;20029;-81
2022/02/21 11:48:49;;;;;;;15.18;5.88;;;486.60;1510.40;;;;;;5033105;28;20492;-83
2022/02/21 11:51:41;;;;;;;14.27;5.40;;;487.00;1484.80;;;;;;5033241;28;20028;-87
2022/02/21 11:54:09;;;;;;;17.30;8.80;;;486.90;1510.40;;;;;;4993996;28;20094;-82
2022/02/21 11:56:50;;;;;;;8.93;5.03;;;487.10;1484.80;;;;;;4977640;28;20038;-79
2022/02/21 11:59:21;;;;;;;8.95;4.10;;;487.10;1408.00;;;;;;4992671;28;20535;-81
2022/02/21 12:02:12;;;;;;;8.07;4.63;;;487.20;1433.60;;;;;;4993023;28;20082;-85
2022/02/21 12:04:59;;;;;;;5.45;3.40;;;487.10;1433.60;;;;;;4984675;28;20569;-87
2022/02/21 12:07:36;;;;;;;9.40;3.95;;;486.80;1459.20;;;;;;4996555;28;20056;-80
2022/02/21 12:10:14;;;;;;;9.43;4.35;;;486.70;1484.80;;;;;;4989932;28;20076;-88
2022/02/21 12:13:02;;;;;;;8.43;4.07;;;486.60;1459.20;;;;;;4976911;28;20026;-83
2022/02/21 12:15:33;;;;;;;7.82;4.40;;;486.50;1484.80;;;;;;4984581;28;20054;-86
2022/02/21 12:18:07;;;;;;;14.27;6.65;;;486.40;1459.20;;;;;;4978898;28;20133;-81
2022/02/21 12:20:38;;;;;;;8.13;3.25;;;486.40;1510.40;;;;;;4993599;28;20092;-85
2022/02/21 12:23:08;;;;;;;9.10;5.00;;;486.40;1484.80;;;;;;4976782;28;20123;-84
2022/02/21 12:25:44;;;;;;;8.02;4.45;;;486.40;1484.80;;;;;;4976790;28;20104;-87
2022/02/21 12:28:13;;;;;;;8.80;4.65;;;486.40;1484.80;;;;;;4992569;28;20093;-80
2022/02/21 12:30:42;;;;;;;8.48;4.03;;;486.40;1459.20;;;;;;5000653;28;20049;-79